Time,TemperatureF,DewpointF,PressureIn,WindDirection,WindDirectionDegrees,WindSpeedMPH,WindSpeedGustMPH,Humidity,HourlyPrecipIn,Conditions,Clouds,dailyrainin,SoftwareType,DateUTC
2013-01-06 00:10:00,55.5,52.0,30.24,NE,40,0.0,2.0,88,0.00,,,0.00,Weather View 32 v70,2013-01-06 05:10:00,
2013-01-06 00:20:00,55.5,52.0,30.23,North,351,0.0,1.0,88,0.00,,,0.00,Weather View 32 v70,2013-01-06 05:20:00,
2013-01-06 00:30:00,55.5,52.0,30.23,North,351,0.0,1.0,88,0.00,,,0.00,Weather View 32 v70,2013-01-06 05:30:00,
2013-01-06 00:40:00,55.5,51.7,30.23,North,5,2.0,3.0,87,0.00,,,0.00,Weather View 32 v70,2013-01-06 05:40:00,
2013-01-06 00:49:00,55.5,51.7,30.23,North,5,2.0,3.0,87,0.00,,,0.00,Weather View 32 v70,2013-01-06 05:49:00,
2013-01-06 00:50:00,55.6,52.1,30.22,NNW,343,0.0,3.0,88,0.00,,,0.00,Weather View 32 v70,2013-01-06 05:50:00,
2013-01-06 01:00:00,55.7,51.9,30.22,ENE,64,0.0,3.0,87,0.00,,,0.00,Weather View 32 v70,2013-01-06 06:00:00,
2013-01-06 01:10:00,55.8,52.0,30.21,East,95,0.0,3.0,87,0.00,,,0.00,Weather View 32 v70,2013-01-06 06:10:00,
2013-01-06 01:20:00,55.8,52.0,30.21,East,90,0.0,3.0,87,0.00,,,0.00,Weather View 32 v70,2013-01-06 06:20:00,
2013-01-06 01:30:00,55.8,52.0,30.21,East,96,2.0,3.0,87,0.00,,,0.00,Weather View 32 v70,2013-01-06 06:30:00,
2013-01-06 01:40:00,55.8,52.0,30.20,ENE,75,0.0,3.0,87,0.00,,,0.00,Weather View 32 v70,2013-01-06 06:40:00,
2013-01-06 01:50:00,55.8,52.0,30.19,ESE,104,3.0,7.0,87,0.00,,,0.00,Weather View 32 v70,2013-01-06 06:50:00,
2013-01-06 02:00:00,55.8,52.0,30.19,East,92,1.0,7.0,87,0.00,,,0.00,Weather View 32 v70,2013-01-06 07:00:00,
2013-01-06 02:10:00,55.8,52.0,30.19,East,96,0.0,7.0,87,0.00,,,0.00,Weather View 32 v70,2013-01-06 07:10:00,
2013-01-06 02:20:00,55.7,52.2,30.20,North,9,0.0,7.0,88,0.00,,,0.00,Weather View 32 v70,2013-01-06 07:20:00,
2013-01-06 02:30:00,55.6,52.1,30.19,North,9,0.0,7.0,88,0.00,,,0.00,Weather View 32 v70,2013-01-06 07:30:00,
2013-01-06 02:40:00,55.6,52.1,30.20,North,9,0.0,7.0,88,0.00,,,0.00,Weather View 32 v70,2013-01-06 07:40:00,
2013-01-06 02:50:00,55.6,52.1,30.20,North,9,0.0,7.0,88,0.00,,,0.00,Weather View 32 v70,2013-01-06 07:50:00,
2013-01-06 02:51:00,55.6,52.1,30.20,North,9,0.0,7.0,88,0.00,,,0.00,Weather View 32 v70,2013-01-06 07:51:00,
2013-01-06 03:00:00,55.6,52.1,30.20,East,85,0.0,3.0,88,0.00,,,0.00,Weather View 32 v70,2013-01-06 08:00:00,
2013-01-06 03:10:00,55.7,52.5,30.19,East,85,0.0,2.0,89,0.00,,,0.00,Weather View 32 v70,2013-01-06 08:10:00,
2013-01-06 03:20:00,55.6,52.1,30.19,East,89,1.0,2.0,88,0.00,,,0.00,Weather View 32 v70,2013-01-06 08:20:00,
2013-01-06 03:30:00,55.7,52.5,30.18,East,101,0.0,2.0,89,0.00,,,0.00,Weather View 32 v70,2013-01-06 08:30:00,
2013-01-06 03:40:00,55.9,52.7,30.17,East,101,1.0,2.0,89,0.00,,,0.00,Weather View 32 v70,2013-01-06 08:40:00,
2013-01-06 03:50:00,55.9,52.4,30.17,ESE,112,0.0,3.0,88,0.00,,,0.00,Weather View 32 v70,2013-01-06 08:50:00,
2013-01-06 03:52:00,55.9,52.4,30.17,ESE,112,0.0,3.0,88,0.00,,,0.00,Weather View 32 v70,2013-01-06 08:52:00,
2013-01-06 04:00:00,56.0,52.5,30.17,ESE,112,1.0,3.0,88,0.00,,,0.00,Weather View 32 v70,2013-01-06 09:00:00,
2013-01-06 04:10:00,56.0,52.5,30.17,NNE,16,0.0,3.0,88,0.00,,,0.00,Weather View 32 v70,2013-01-06 09:10:00,
2013-01-06 04:20:00,56.0,52.8,30.16,ENE,67,0.0,3.0,89,0.00,,,0.00,Weather View 32 v70,2013-01-06 09:20:00,
2013-01-06 04:30:00,56.0,52.8,30.17,ENE,66,0.0,3.0,89,0.00,,,0.00,Weather View 32 v70,2013-01-06 09:30:00,
2013-01-06 04:40:00,56.0,52.8,30.17,NE,55,0.0,3.0,89,0.00,,,0.00,Weather View 32 v70,2013-01-06 09:40:00,
2013-01-06 04:50:00,56.0,52.8,30.17,NNE,22,0.0,2.0,89,0.00,,,0.00,Weather View 32 v70,2013-01-06 09:50:00,
2013-01-06 04:52:00,56.0,52.8,30.17,NNE,22,0.0,2.0,89,0.00,,,0.00,Weather View 32 v70,2013-01-06 09:52:00,
2013-01-06 05:00:00,56.1,52.9,30.16,NNE,22,0.0,2.0,89,0.00,,,0.00,Weather View 32 v70,2013-01-06 10:00:00,
2013-01-06 05:10:00,56.1,53.2,30.16,NE,50,0.0,2.0,90,0.00,,,0.00,Weather View 32 v70,2013-01-06 10:10:00,
2013-01-06 05:20:00,56.1,52.9,30.16,NE,40,0.0,2.0,89,0.00,,,0.00,Weather View 32 v70,2013-01-06 10:20:00,
2013-01-06 05:30:00,56.2,53.3,30.15,East,101,0.0,2.0,90,0.00,,,0.00,Weather View 32 v70,2013-01-06 10:30:00,
2013-01-06 05:40:00,56.1,52.9,30.15,East,86,0.0,2.0,89,0.00,,,0.00,Weather View 32 v70,2013-01-06 10:40:00,
2013-01-06 05:50:00,55.9,52.7,30.15,ENE,69,0.0,3.0,89,0.00,,,0.00,Weather View 32 v70,2013-01-06 10:50:00,
2013-01-06 05:53:00,55.9,52.7,30.15,ENE,69,0.0,3.0,89,0.00,,,0.00,Weather View 32 v70,2013-01-06 10:53:00,
2013-01-06 06:00:00,55.9,53.0,30.15,ESE,117,0.0,3.0,90,0.00,,,0.00,Weather View 32 v70,2013-01-06 11:00:00,
2013-01-06 06:10:00,55.7,52.8,30.16,NE,36,0.0,3.0,90,0.00,,,0.00,Weather View 32 v70,2013-01-06 11:10:00,
2013-01-06 06:20:00,55.7,52.8,30.15,ENE,77,0.0,3.0,90,0.00,,,0.00,Weather View 32 v70,2013-01-06 11:20:00,
2013-01-06 06:30:00,55.8,52.9,30.15,ESE,103,0.0,3.0,90,0.00,,,0.00,Weather View 32 v70,2013-01-06 11:30:00,
2013-01-06 06:40:00,56.0,53.1,30.15,ESE,107,0.0,3.0,90,0.00,,,0.00,Weather View 32 v70,2013-01-06 11:40:00,
2013-01-06 06:50:00,56.2,53.3,30.15,ESE,115,0.0,3.0,90,0.00,,,0.00,Weather View 32 v70,2013-01-06 11:50:00,
2013-01-06 06:53:00,56.2,53.3,30.15,ESE,115,0.0,3.0,90,0.00,,,0.00,Weather View 32 v70,2013-01-06 11:53:00,
2013-01-06 07:00:00,56.3,53.4,30.15,ESE,115,0.0,3.0,90,0.00,,,0.00,Weather View 32 v70,2013-01-06 12:00:00,
2013-01-06 07:10:00,56.3,53.4,30.16,ESE,115,0.0,3.0,90,0.00,,,0.00,Weather View 32 v70,2013-01-06 12:10:00,
2013-01-06 07:20:00,56.4,53.5,30.16,ESE,115,0.0,3.0,90,0.00,,,0.00,Weather View 32 v70,2013-01-06 12:20:00,
2013-01-06 07:30:00,56.5,53.6,30.16,SE,126,0.0,2.0,90,0.00,,,0.00,Weather View 32 v70,2013-01-06 12:30:00,
2013-01-06 07:40:00,56.8,53.9,30.15,SE,126,0.0,2.0,90,0.00,,,0.00,Weather View 32 v70,2013-01-06 12:40:00,
2013-01-06 07:50:00,57.0,54.1,30.16,SE,126,0.0,2.0,90,0.00,,,0.00,Weather View 32 v70,2013-01-06 12:50:00,
2013-01-06 08:00:00,57.2,54.0,30.18,NNW,342,0.0,2.0,89,0.00,,,0.00,Weather View 32 v70,2013-01-06 13:00:00,
2013-01-06 08:10:00,57.3,54.1,30.18,North,349,0.0,2.0,89,0.00,,,0.00,Weather View 32 v70,2013-01-06 13:10:00,
2013-01-06 08:20:00,57.2,54.3,30.19,East,92,0.0,3.0,90,0.00,,,0.00,Weather View 32 v70,2013-01-06 13:20:00,
2013-01-06 08:30:00,57.2,54.0,30.19,ESE,104,2.0,3.0,89,0.00,,,0.00,Weather View 32 v70,2013-01-06 13:30:00,
2013-01-06 08:40:00,57.3,54.1,30.19,NE,40,0.0,3.0,89,0.00,,,0.00,Weather View 32 v70,2013-01-06 13:40:00,
2013-01-06 08:50:00,57.5,54.3,30.19,ENE,60,1.0,3.0,89,0.00,,,0.00,Weather View 32 v70,2013-01-06 13:50:00,
2013-01-06 09:00:00,57.7,54.5,30.19,ESE,105,0.0,3.0,89,0.00,,,0.00,Weather View 32 v70,2013-01-06 14:00:00,
2013-01-06 09:10:00,58.1,54.9,30.19,East,88,0.0,5.0,89,0.00,,,0.00,Weather View 32 v70,2013-01-06 14:10:00,
2013-01-06 09:20:00,58.6,55.0,30.19,East,98,1.0,5.0,88,0.00,,,0.00,Weather View 32 v70,2013-01-06 14:20:00,
2013-01-06 09:30:00,58.9,55.7,30.18,SE,133,2.0,5.0,89,0.00,,,0.00,Weather View 32 v70,2013-01-06 14:30:00,
2013-01-06 09:40:00,59.5,55.9,30.18,ESE,120,0.0,5.0,88,0.00,,,0.00,Weather View 32 v70,2013-01-06 14:40:00,
2013-01-06 09:50:00,60.7,56.8,30.18,East,97,0.0,5.0,87,0.00,,,0.00,Weather View 32 v70,2013-01-06 14:50:00,
2013-01-06 09:55:00,60.7,56.8,30.18,East,97,0.0,5.0,87,0.00,,,0.00,Weather View 32 v70,2013-01-06 14:55:00,
2013-01-06 10:10:00,62.1,57.8,30.17,ESE,111,0.0,5.0,86,0.00,,,0.00,Weather View 32 v70,2013-01-06 15:10:00,
2013-01-06 10:20:00,62.9,58.3,30.18,SSE,149,0.0,5.0,85,0.00,,,0.00,Weather View 32 v70,2013-01-06 15:20:00,
2013-01-06 10:30:00,63.2,58.6,30.18,ESE,112,3.0,5.0,85,0.00,,,0.00,Weather View 32 v70,2013-01-06 15:30:00,
2013-01-06 10:40:00,64.7,59.4,30.18,East,84,1.0,5.0,83,0.00,,,0.00,Weather View 32 v70,2013-01-06 15:40:00,
2013-01-06 10:50:00,64.9,59.6,30.18,North,5,1.0,5.0,83,0.00,,,0.00,Weather View 32 v70,2013-01-06 15:50:00,
2013-01-06 10:56:00,64.9,59.6,30.18,North,5,1.0,5.0,83,0.00,,,0.00,Weather View 32 v70,2013-01-06 15:56:00,
2013-01-06 11:00:00,65.1,59.5,30.18,East,90,3.0,5.0,82,0.00,,,0.00,Weather View 32 v70,2013-01-06 16:00:00,
2013-01-06 11:10:00,65.0,59.4,30.17,SSE,153,1.0,5.0,82,0.00,,,0.00,Weather View 32 v70,2013-01-06 16:10:00,
2013-01-06 11:20:00,65.5,59.8,30.17,East,96,0.0,6.0,82,0.00,,,0.00,Weather View 32 v70,2013-01-06 16:20:00,
2013-01-06 11:30:00,65.7,60.0,30.16,ESE,112,0.0,6.0,82,0.00,,,0.00,Weather View 32 v70,2013-01-06 16:30:00,
2013-01-06 11:40:00,66.4,60.4,30.16,SSE,160,0.0,6.0,81,0.00,,,0.00,Weather View 32 v70,2013-01-06 16:40:00,
2013-01-06 11:50:00,66.7,60.7,30.16,SSE,160,0.0,6.0,81,0.00,,,0.00,Weather View 32 v70,2013-01-06 16:50:00,
2013-01-06 11:56:00,66.7,60.7,30.16,SSE,160,0.0,6.0,81,0.00,,,0.00,Weather View 32 v70,2013-01-06 16:56:00,
2013-01-06 12:00:00,66.9,60.5,30.16,South,173,0.0,6.0,80,0.00,,,0.00,Weather View 32 v70,2013-01-06 17:00:00,
2013-01-06 12:10:00,67.0,61.0,30.15,South,173,0.0,6.0,81,0.00,,,0.00,Weather View 32 v70,2013-01-06 17:10:00,
2013-01-06 12:20:00,66.9,60.9,30.14,South,173,0.0,3.0,81,0.00,,,0.00,Weather View 32 v70,2013-01-06 17:20:00,
2013-01-06 12:30:00,67.0,61.0,30.14,South,173,0.0,1.0,81,0.00,,,0.00,Weather View 32 v70,2013-01-06 17:30:00,
2013-01-06 12:40:00,66.9,61.2,30.13,South,173,0.0,1.0,82,0.00,,,0.00,Weather View 32 v70,2013-01-06 17:40:00,
2013-01-06 12:50:00,67.3,61.6,30.13,South,174,1.0,2.0,82,0.00,,,0.00,Weather View 32 v70,2013-01-06 17:50:00,
2013-01-06 12:57:00,67.3,61.6,30.13,South,174,1.0,2.0,82,0.00,,,0.00,Weather View 32 v70,2013-01-06 17:57:00,
2013-01-06 13:10:00,67.6,61.5,30.11,South,177,0.0,2.0,81,0.00,,,0.00,Weather View 32 v70,2013-01-06 18:10:00,
2013-01-06 13:20:00,67.7,61.6,30.11,South,179,1.0,2.0,81,0.00,,,0.00,Weather View 32 v70,2013-01-06 18:20:00,
2013-01-06 13:30:00,68.3,62.2,30.10,South,179,0.0,2.0,81,0.00,,,0.00,Weather View 32 v70,2013-01-06 18:30:00,
2013-01-06 13:40:00,68.3,62.6,30.10,South,179,0.0,2.0,82,0.00,,,0.00,Weather View 32 v70,2013-01-06 18:40:00,
2013-01-06 13:50:00,68.7,63.0,30.10,South,179,0.0,2.0,82,0.00,,,0.00,Weather View 32 v70,2013-01-06 18:50:00,
2013-01-06 13:57:00,68.7,63.0,30.10,South,179,0.0,2.0,82,0.00,,,0.00,Weather View 32 v70,2013-01-06 18:57:00,
2013-01-06 14:00:00,68.1,62.4,30.09,South,179,0.0,2.0,82,0.00,,,0.00,Weather View 32 v70,2013-01-06 19:00:00,
2013-01-06 14:10:00,68.1,61.7,30.09,NNW,335,1.0,4.0,80,0.00,,,0.00,Weather View 32 v70,2013-01-06 19:10:00,
2013-01-06 14:20:00,68.3,61.9,30.09,East,90,2.0,5.0,80,0.00,,,0.00,Weather View 32 v70,2013-01-06 19:20:00,
2013-01-06 14:30:00,68.1,61.7,30.09,East,101,2.0,6.0,80,0.00,,,0.00,Weather View 32 v70,2013-01-06 19:30:00,
2013-01-06 14:40:00,68.0,61.9,30.09,East,100,0.0,7.0,81,0.00,,,0.00,Weather View 32 v70,2013-01-06 19:40:00,
2013-01-06 14:50:00,67.2,60.8,30.10,ENE,70,1.0,7.0,80,0.00,,,0.00,Weather View 32 v70,2013-01-06 19:50:00,
2013-01-06 14:58:00,67.2,60.8,30.10,ENE,70,1.0,7.0,80,0.00,,,0.00,Weather View 32 v70,2013-01-06 19:58:00,
2013-01-06 15:00:00,66.8,60.4,30.09,ESE,110,0.0,7.0,80,0.00,,,0.00,Weather View 32 v70,2013-01-06 20:00:00,
2013-01-06 15:10:00,66.5,60.1,30.10,East,87,0.0,7.0,80,0.00,,,0.00,Weather View 32 v70,2013-01-06 20:10:00,
2013-01-06 15:20:00,66.2,60.2,30.10,East,92,0.0,7.0,81,0.00,,,0.00,Weather View 32 v70,2013-01-06 20:20:00,
2013-01-06 15:30:00,65.6,59.2,30.10,NW,322,0.0,7.0,80,0.00,,,0.00,Weather View 32 v70,2013-01-06 20:30:00,
2013-01-06 15:40:00,64.8,58.8,30.10,ENE,78,1.0,7.0,81,0.00,,,0.00,Weather View 32 v70,2013-01-06 20:40:00,
2013-01-06 15:50:00,63.7,57.7,30.10,East,88,1.0,8.0,81,0.00,,,0.00,Weather View 32 v70,2013-01-06 20:50:00,
2013-01-06 15:59:00,63.7,57.7,30.10,East,88,1.0,8.0,81,0.00,,,0.00,Weather View 32 v70,2013-01-06 20:59:00,
2013-01-06 16:00:00,62.8,57.2,30.10,NE,52,1.0,8.0,82,0.00,,,0.00,Weather View 32 v70,2013-01-06 21:00:00,
2013-01-06 16:10:00,62.0,56.8,30.10,East,91,0.0,8.0,83,0.00,,,0.00,Weather View 32 v70,2013-01-06 21:10:00,
2013-01-06 16:20:00,61.6,56.4,30.10,NE,46,3.0,8.0,83,0.00,,,0.00,Weather View 32 v70,2013-01-06 21:20:00,
2013-01-06 16:30:00,60.9,56.0,30.10,ENE,58,2.0,8.0,84,0.00,,,0.00,Weather View 32 v70,2013-01-06 21:30:00,
2013-01-06 16:40:00,60.5,56.0,30.11,ESE,105,1.0,8.0,85,0.00,,,0.00,Weather View 32 v70,2013-01-06 21:40:00,
2013-01-06 16:50:00,60.2,56.0,30.10,ENE,61,0.0,7.0,86,0.00,,,0.00,Weather View 32 v70,2013-01-06 21:50:00,
2013-01-06 16:59:00,60.2,56.0,30.10,ENE,61,0.0,7.0,86,0.00,,,0.00,Weather View 32 v70,2013-01-06 21:59:00,
2013-01-06 17:10:00,59.7,55.8,30.11,NNE,18,0.0,7.0,87,0.00,,,0.00,Weather View 32 v70,2013-01-06 22:10:00,
2013-01-06 17:20:00,59.3,55.7,30.12,NE,37,0.0,7.0,88,0.00,,,0.00,Weather View 32 v70,2013-01-06 22:20:00,
2013-01-06 17:30:00,59.0,55.4,30.12,NNW,348,0.0,5.0,88,0.00,,,0.00,Weather View 32 v70,2013-01-06 22:30:00,
2013-01-06 17:40:00,59.0,55.8,30.13,NE,40,0.0,5.0,89,0.00,,,0.00,Weather View 32 v70,2013-01-06 22:40:00,
2013-01-06 17:50:00,58.7,55.5,30.13,SE,131,0.0,4.0,89,0.00,,,0.00,Weather View 32 v70,2013-01-06 22:50:00,
2013-01-06 18:00:00,58.6,55.7,30.13,East,86,1.0,5.0,90,0.00,,,0.00,Weather View 32 v70,2013-01-06 23:00:00,
2013-01-06 18:10:00,58.4,55.8,30.13,East,91,2.0,6.0,91,0.00,,,0.00,Weather View 32 v70,2013-01-06 23:10:00,
2013-01-06 18:20:00,58.2,55.9,30.13,East,82,1.0,6.0,92,0.00,,,0.00,Weather View 32 v70,2013-01-06 23:20:00,
2013-01-06 18:30:00,58.1,56.1,30.13,East,82,1.0,6.0,93,0.01,,,0.01,Weather View 32 v70,2013-01-06 23:30:00,
2013-01-06 18:40:00,57.9,56.2,30.13,ESE,103,0.0,6.0,94,0.01,,,0.01,Weather View 32 v70,2013-01-06 23:40:00,
2013-01-06 18:50:00,57.7,56.0,30.14,ESE,114,0.0,6.0,94,0.01,,,0.01,Weather View 32 v70,2013-01-06 23:50:00,
2013-01-06 19:00:00,57.7,56.0,30.14,ESE,113,1.0,6.0,94,0.01,,,0.01,Weather View 32 v70,2013-01-07 00:00:00,
2013-01-06 19:01:00,57.7,56.0,30.14,ESE,113,1.0,6.0,94,0.01,,,0.01,Weather View 32 v70,2013-01-07 00:01:00,
2013-01-06 19:10:00,57.6,55.9,30.14,ESE,113,0.0,3.0,94,0.01,,,0.01,Weather View 32 v70,2013-01-07 00:10:00,
2013-01-06 19:20:00,57.5,56.1,30.15,North,350,0.0,3.0,95,0.01,,,0.01,Weather View 32 v70,2013-01-07 00:20:00,
2013-01-06 19:30:00,57.4,55.7,30.15,WNW,296,0.0,2.0,94,0.00,,,0.01,Weather View 32 v70,2013-01-07 00:30:00,
2013-01-06 19:40:00,57.3,55.6,30.16,East,84,0.0,6.0,94,0.00,,,0.01,Weather View 32 v70,2013-01-07 00:40:00,
2013-01-06 20:00:00,57.0,55.3,30.15,ESE,103,1.0,7.0,94,0.00,,,0.01,Weather View 32 v70,2013-01-07 01:00:00,
2013-01-06 20:02:00,57.0,55.3,30.15,ESE,103,1.0,7.0,94,0.00,,,0.01,Weather View 32 v70,2013-01-07 01:02:00,
2013-01-06 20:10:00,56.9,55.2,30.15,East,83,3.0,7.0,94,0.00,,,0.01,Weather View 32 v70,2013-01-07 01:10:00,
2013-01-06 20:20:00,56.7,55.0,30.14,ESE,104,0.0,7.0,94,0.00,,,0.01,Weather View 32 v70,2013-01-07 01:20:00,
2013-01-06 20:30:00,56.6,54.9,30.14,East,80,0.0,7.0,94,0.00,,,0.01,Weather View 32 v70,2013-01-07 01:30:00,
2013-01-06 20:40:00,56.5,55.1,30.16,North,360,2.0,7.0,95,0.00,,,0.01,Weather View 32 v70,2013-01-07 01:40:00,
2013-01-06 20:50:00,56.5,55.1,30.17,SE,139,0.0,7.0,95,0.00,,,0.01,Weather View 32 v70,2013-01-07 01:50:00,
2013-01-06 21:00:00,56.4,55.0,30.16,North,10,0.0,5.0,95,0.00,,,0.01,Weather View 32 v70,2013-01-07 02:00:00,
2013-01-06 21:02:00,56.4,55.0,30.16,North,10,0.0,5.0,95,0.00,,,0.01,Weather View 32 v70,2013-01-07 02:02:00,
2013-01-06 21:10:00,56.4,55.0,30.16,East,101,1.0,5.0,95,0.00,,,0.01,Weather View 32 v70,2013-01-07 02:10:00,
2013-01-06 21:20:00,56.3,54.9,30.16,East,96,1.0,5.0,95,0.00,,,0.01,Weather View 32 v70,2013-01-07 02:20:00,
2013-01-06 21:30:00,56.3,54.9,30.17,ENE,61,0.0,5.0,95,0.00,,,0.01,Weather View 32 v70,2013-01-07 02:30:00,
2013-01-06 21:40:00,56.3,54.9,30.16,East,80,1.0,5.0,95,0.00,,,0.01,Weather View 32 v70,2013-01-07 02:40:00,
2013-01-06 21:50:00,56.3,54.9,30.16,East,80,0.0,5.0,95,0.00,,,0.01,Weather View 32 v70,2013-01-07 02:50:00,
2013-01-06 22:00:00,56.3,54.9,30.18,NNW,336,0.0,5.0,95,0.00,,,0.01,Weather View 32 v70,2013-01-07 03:00:00,
2013-01-06 22:03:00,56.3,54.9,30.18,NNW,336,0.0,5.0,95,0.00,,,0.01,Weather View 32 v70,2013-01-07 03:03:00,
2013-01-06 22:10:00,56.4,55.0,30.16,East,93,1.0,3.0,95,0.01,,,0.02,Weather View 32 v70,2013-01-07 03:10:00,
2013-01-06 22:20:00,56.4,55.0,30.17,East,93,0.0,3.0,95,0.01,,,0.02,Weather View 32 v70,2013-01-07 03:20:00,
2013-01-06 22:30:00,56.2,54.8,30.18,NNE,30,1.0,3.0,95,0.01,,,0.02,Weather View 32 v70,2013-01-07 03:30:00,
2013-01-06 22:40:00,56.1,55.0,30.18,ENE,69,0.0,3.0,96,0.01,,,0.02,Weather View 32 v70,2013-01-07 03:40:00,
2013-01-06 22:50:00,56.0,54.9,30.18,NNE,31,0.0,2.0,96,0.01,,,0.02,Weather View 32 v70,2013-01-07 03:50:00,
2013-01-06 23:00:00,56.0,54.9,30.18,East,88,0.0,2.0,96,0.01,,,0.02,Weather View 32 v70,2013-01-07 04:00:00,
2013-01-06 23:10:00,56.0,54.9,30.18,East,88,0.0,2.0,96,0.00,,,0.02,Weather View 32 v70,2013-01-07 04:10:00,
2013-01-06 23:20:00,56.0,54.9,30.18,East,88,0.0,1.0,96,0.00,,,0.02,Weather View 32 v70,2013-01-07 04:20:00,
2013-01-06 23:30:00,56.0,54.9,30.18,North,9,1.0,2.0,96,0.00,,,0.02,Weather View 32 v70,2013-01-07 04:30:00,
2013-01-06 23:40:00,55.9,54.8,30.18,NNE,32,0.0,2.0,96,0.00,,,0.02,Weather View 32 v70,2013-01-07 04:40:00,
2013-01-06 23:50:00,55.8,54.7,30.18,NNW,339,2.0,3.0,96,0.00,,,0.02,Weather View 32 v70,2013-01-07 04:50:00,